Time;durP1;ratioP1;P1;durP2;ratioP2;P2;SDS_P1;SDS_P2;PMS_P1;PMS_P2;Temp;Humidity;BMP_temperature;BMP_pressure;BME280_temperature;BME280_humidity;BME280_pressure;Samples;Min_cycle;Max_cycle;Signal;HPM_P1;HPM_P2
2021/11/20 00:01:09;;;;;;;20.08;3.63;;;;;;;10.39;100.00;101988.00;5091735;28;20480;-77
2021/11/20 00:03:38;;;;;;;21.55;4.22;;;;;;;10.43;100.00;102000.13;5074402;28;20035;-77
2021/11/20 00:06:05;;;;;;;13.30;2.72;;;;;;;10.48;100.00;102011.25;5091336;28;20034;-77
2021/11/20 00:08:31;;;;;;;22.02;3.47;;;;;;;10.46;100.00;102004.34;5074463;28;20051;-77
2021/11/20 00:11:00;;;;;;;14.10;3.22;;;;;;;10.45;100.00;102011.53;5074493;28;20044;-77
2021/11/20 00:13:27;;;;;;;15.43;2.95;;;;;;;10.44;100.00;102022.31;5074135;28;20039;-77
2021/11/20 00:15:56;;;;;;;14.35;3.28;;;;;;;10.37;100.00;102013.97;5091242;28;20040;-77
2021/11/20 00:18:22;;;;;;;21.67;3.97;;;;;;;10.40;100.00;102028.94;5074452;28;20031;-76
2021/11/20 00:20:55;;;;;;;16.60;3.80;;;;;;;10.31;100.00;102025.22;5092030;28;20117;-77
2021/11/20 00:23:25;;;;;;;17.50;3.88;;;;;;;10.36;100.00;102047.00;5074041;28;20044;-77
2021/11/20 00:25:54;;;;;;;26.92;4.20;;;;;;;10.40;100.00;102055.63;5074092;28;20035;-77
2021/11/20 00:28:31;;;;;;;12.77;2.55;;;;;;;10.38;100.00;102050.41;5090946;28;20361;-77
2021/11/20 00:30:58;;;;;;;22.00;4.00;;;;;;;10.38;100.00;102046.91;5090902;28;20035;-77
2021/11/20 00:33:30;;;;;;;12.02;3.00;;;;;;;10.39;100.00;102051.25;5073670;28;20042;-77
2021/11/20 00:35:59;;;;;;;13.32;2.40;;;;;;;10.36;100.00;102049.69;5090694;28;20031;-77
2021/11/20 00:38:27;;;;;;;13.30;2.55;;;;;;;10.22;100.00;102032.13;5090735;28;20028;-77
2021/11/20 00:40:59;;;;;;;12.57;2.45;;;;;;;10.30;100.00;102047.50;5073856;28;20040;-78
2021/11/20 00:43:26;;;;;;;13.20;2.97;;;;;;;10.26;100.00;102048.75;5073721;28;20027;-77
2021/11/20 00:45:52;;;;;;;15.77;2.78;;;;;;;10.26;100.00;102054.91;5090579;28;20096;-77
2021/11/20 00:48:20;;;;;;;16.50;2.50;;;;;;;10.32;100.00;102053.56;5090564;28;20457;-77
2021/11/20 00:50:50;;;;;;;11.50;2.65;;;;;;;10.30;100.00;102067.06;5073666;28;20353;-77
2021/11/20 00:53:17;;;;;;;16.60;2.97;;;;;;;10.28;100.00;102062.81;5090272;28;20047;-77
2021/11/20 00:55:44;;;;;;;8.30;2.03;;;;;;;10.37;100.00;102074.53;5090214;28;20449;-77
2021/11/20 00:58:09;;;;;;;;;;;;;;;10.39;100.00;102054.75;5090753;28;20032;-77
2021/11/20 01:00:37;;;;;;;;;;;;;;;10.38;100.00;102026.38;5090730;28;19923;-77
2021/11/20 01:03:04;;;;;;;13.57;1.83;;;;;;;10.39;100.00;102009.38;5073061;28;19915;-77
2021/11/20 01:05:30;;;;;;;14.93;3.30;;;;;;;10.29;100.00;101979.94;5073354;28;20031;-77
2021/11/20 01:07:56;;;;;;;;;;;;;;;10.31;100.00;101999.34;5090668;28;20031;-77
2021/11/20 01:10:26;;;;;;;23.23;2.85;;;;;;;10.30;100.00;101996.81;5073494;28;19908;-77
2021/11/20 01:12:52;;;;;;;19.33;3.35;;;;;;;10.17;100.00;101991.63;5089723;28;20040;-77
2021/11/20 01:15:23;;;;;;;9.05;1.98;;;;;;;10.18;100.00;102019.16;5090151;28;20043;-77
2021/11/20 01:17:49;;;;;;;12.10;2.88;;;;;;;10.24;100.00;102034.69;5089565;28;20038;-77
2021/11/20 01:20:16;;;;;;;14.13;2.05;;;;;;;10.17;100.00;102038.84;5073185;28;20047;-77
2021/11/20 01:22:54;;;;;;;9.68;2.85;;;;;;;10.13;100.00;102043.56;5090771;28;20475;-77
2021/11/20 01:25:26;;;;;;;12.75;2.63;;;;;;;10.14;100.00;102059.47;5090757;28;20450;-77
2021/11/20 01:28:15;;;;;;;12.45;2.58;;;;;;;10.13;100.00;102071.09;5084477;28;20032;-77
2021/11/20 01:30:57;;;;;;;16.88;2.90;;;;;;;10.17;100.00;102084.19;5089782;28;20028;-78
2021/11/20 01:33:33;;;;;;;8.48;1.92;;;;;;;10.09;100.00;102088.34;5073472;28;20426;-77
2021/11/20 01:35:59;;;;;;;9.82;2.28;;;;;;;10.10;100.00;102098.03;5089554;28;20040;-77
2021/11/20 01:38:25;;;;;;;11.88;2.90;;;;;;;10.04;100.00;102092.34;5089506;28;20020;-77
2021/11/20 01:40:55;;;;;;;15.18;2.50;;;;;;;10.07;100.00;102097.47;5089574;28;20036;-77
2021/11/20 01:43:33;;;;;;;10.13;2.22;;;;;;;10.03;100.00;102110.19;5089153;28;20759;-77
2021/11/20 01:46:14;;;;;;;7.95;2.60;;;;;;;10.05;100.00;102112.75;5090398;28;20068;-77
2021/11/20 01:49:10;;;;;;;9.38;2.50;;;;;;;10.02;100.00;102116.53;5089431;28;20044;-77
2021/11/20 01:51:41;;;;;;;5.13;1.95;;;;;;;9.99;100.00;102105.22;5072402;28;20036;-77
2021/11/20 01:54:15;;;;;;;11.30;2.08;;;;;;;9.98;100.00;102117.72;5089119;28;20443;-77
2021/11/20 01:57:03;;;;;;;11.05;2.15;;;;;;;9.94;100.00;102101.13;5073586;28;20071;-77
2021/11/20 01:59:48;;;;;;;6.28;2.13;;;;;;;9.95;100.00;102101.97;5089415;28;20427;-76
2021/11/20 02:03:02;;;;;;;7.70;1.55;;;;;;;9.97;100.00;102115.19;5089478;28;20043;-77
2021/11/20 02:05:45;;;;;;;8.57;1.75;;;;;;;9.97;100.00;102110.69;5089292;28;20084;-77
2021/11/20 02:08:26;;;;;;;9.43;1.85;;;;;;;9.96;100.00;102106.34;5073307;28;20119;-77
2021/11/20 02:11:11;;;;;;;12.93;3.15;;;;;;;9.95;100.00;102104.66;5089140;28;20039;-76
2021/11/20 02:13:36;;;;;;;8.00;2.10;;;;;;;9.95;100.00;102112.66;5072119;28;20066;-76
2021/11/20 02:16:15;;;;;;;7.03;1.77;;;;;;;9.91;100.00;102095.19;5072439;28;20100;-75
2021/11/20 02:18:47;;;;;;;8.82;2.42;;;;;;;9.92;100.00;102089.72;5088916;28;20093;-76
2021/11/20 02:21:25;;;;;;;15.48;2.35;;;;;;;9.82;100.00;102078.13;5072400;28;20042;-75
2021/11/20 02:23:54;;;;;;;14.02;2.42;;;;;;;9.90;100.00;102104.16;5072176;28;20127;-75
2021/11/20 02:26:22;;;;;;;10.48;1.80;;;;;;;9.85;100.00;102107.19;5072430;28;20122;-75
2021/11/20 02:28:52;;;;;;;7.47;1.80;;;;;;;9.85;100.00;102115.19;5088684;28;20028;-76
2021/11/20 02:31:54;;;;;;;6.13;1.65;;;;;;;9.81;100.00;102110.22;5088346;28;20119;-75
2021/11/20 02:34:33;;;;;;;8.93;1.88;;;;;;;9.84;100.00;102121.53;5088199;28;20043;-75
2021/11/20 02:37:00;;;;;;;11.00;1.98;;;;;;;9.81;100.00;102108.44;5088704;28;20365;-75
2021/11/20 02:39:31;;;;;;;11.48;2.75;;;;;;;9.82;100.00;102123.47;5087512;28;20028;-75
2021/11/20 02:42:02;;;;;;;9.40;1.80;;;;;;;9.82;100.00;102126.13;5088594;28;20046;-75
2021/11/20 02:44:28;;;;;;;7.85;2.25;;;;;;;9.78;100.00;102129.16;5088343;28;20031;-75
2021/11/20 02:47:00;;;;;;;10.68;2.08;;;;;;;9.83;100.00;102137.63;5071914;28;20028;-75
2021/11/20 02:49:30;;;;;;;10.70;1.90;;;;;;;9.83;100.00;102126.97;5088477;28;20416;-75
2021/11/20 02:52:13;;;;;;;9.80;2.28;;;;;;;9.75;100.00;102113.41;5088430;28;20028;-75
2021/11/20 02:54:38;;;;;;;8.35;1.52;;;;;;;9.85;100.00;102122.34;5088320;28;20587;-76
2021/11/20 02:57:21;;;;;;;12.73;2.53;;;;;;;9.80;100.00;102111.22;5088550;28;20043;-75
2021/11/20 02:59:47;;;;;;;9.63;2.92;;;;;;;9.84;100.00;102107.34;5088728;28;20373;-75
2021/11/20 03:02:19;;;;;;;14.07;3.53;;;;;;;9.74;100.00;102069.91;5072477;28;20492;-75
2021/11/20 03:04:45;;;;;;;8.82;1.60;;;;;;;9.79;100.00;102074.88;5087986;28;20028;-76
2021/11/20 03:07:12;;;;;;;13.80;2.50;;;;;;;9.70;100.00;102068.44;5071578;28;20047;-76
2021/11/20 03:09:38;;;;;;;4.43;1.80;;;;;;;9.80;100.00;102089.88;5071620;28;20044;-75
2021/11/20 03:12:12;;;;;;;5.25;1.63;;;;;;;9.79;100.00;102098.88;5088500;28;20028;-75
2021/11/20 03:14:39;;;;;;;8.60;1.60;;;;;;;9.73;100.00;102085.03;5071317;28;20040;-75
2021/11/20 03:17:09;;;;;;;12.75;2.22;;;;;;;9.68;100.00;102079.22;5071664;28;20028;-75
2021/11/20 03:19:41;;;;;;;8.18;1.92;;;;;;;9.63;100.00;102078.75;5088214;28;20040;-76
2021/11/20 03:22:11;;;;;;;4.95;1.20;;;;;;;9.69;100.00;102110.28;5071522;28;20039;-75
2021/11/20 03:24:37;;;;;;;6.40;1.60;;;;;;;9.68;100.00;102092.56;5089121;28;20039;-75
2021/11/20 03:27:03;;;;;;;;;;;;;;;9.72;100.00;102094.03;5089603;28;20485;-76
2021/11/20 03:29:33;;;;;;;3.28;1.20;;;;;;;9.64;100.00;102082.25;5088105;28;19976;-75
2021/11/20 03:31:59;;;;;;;8.45;2.65;;;;;;;9.72;100.00;102083.34;5071118;28;20090;-76
2021/11/20 03:34:28;;;;;;;4.68;1.40;;;;;;;9.72;100.00;102077.19;5087570;28;20051;-75
2021/11/20 03:36:54;;;;;;;8.27;1.50;;;;;;;9.72;100.00;102079.84;5088234;28;20067;-75
2021/11/20 03:39:25;;;;;;;5.03;2.22;;;;;;;9.76;100.00;102072.44;5088022;28;20413;-75
2021/11/20 03:41:53;;;;;;;5.97;1.50;;;;;;;9.71;100.00;102054.97;5074429;28;20481;-75
2021/11/20 03:44:19;;;;;;;6.03;1.52;;;;;;;9.77;100.00;102044.81;5091433;28;20028;-75
2021/11/20 03:46:46;;;;;;;8.70;1.90;;;;;;;9.75;100.00;102041.41;5091885;28;20471;-75
2021/11/20 03:49:13;;;;;;;10.40;2.53;;;;;;;9.81;100.00;102043.56;5091672;28;20032;-76
2021/11/20 03:51:39;;;;;;;6.97;1.48;;;;;;;9.84;100.00;102046.00;5091468;28;20036;-75
2021/11/20 03:54:06;;;;;;;8.45;1.25;;;;;;;9.78;100.00;102030.47;5074467;28;20385;-75
2021/11/20 03:56:33;;;;;;;8.95;1.75;;;;;;;9.77;100.00;102034.13;5091687;28;20024;-76
2021/11/20 03:59:03;;;;;;;6.13;1.65;;;;;;;9.73;100.00;102017.53;5090499;28;20147;-76
2021/11/20 04:01:31;;;;;;;6.18;1.38;;;;;;;9.72;100.00;102016.69;5090250;28;20032;-75
2021/11/20 04:03:59;;;;;;;7.00;2.03;;;;;;;9.67;100.00;102029.56;5090361;28;20469;-76
2021/11/20 04:06:26;;;;;;;8.60;1.60;;;;;;;9.71;100.00;102046.97;5073641;28;20036;-75
2021/11/20 04:08:59;;;;;;;9.45;1.42;;;;;;;9.65;100.00;102044.81;5090445;28;20036;-76
2021/11/20 04:11:35;;;;;;;3.83;1.93;;;;;;;9.69;100.00;102059.59;5090587;28;20458;-75
2021/11/20 04:14:01;;;;;;;6.45;2.15;;;;;;;9.67;100.00;102053.56;5073589;28;20032;-75
2021/11/20 04:16:29;;;;;;;10.65;1.85;;;;;;;9.70;100.00;102057.78;5073905;28;20032;-76
2021/11/20 04:18:58;;;;;;;4.68;1.48;;;;;;;9.67;100.00;102042.88;5090942;28;20047;-76
2021/11/20 04:21:24;;;;;;;5.30;1.55;;;;;;;9.75;100.00;102065.41;5074292;28;20477;-76
2021/11/20 04:23:54;;;;;;;3.90;1.50;;;;;;;9.71;100.00;102038.97;5090717;28;20043;-75
2021/11/20 04:26:36;;;;;;;4.80;1.63;;;;;;;9.63;100.00;102030.75;5091142;28;20061;-76
2021/11/20 04:29:02;;;;;;;3.22;1.52;;;;;;;9.51;100.00;101995.28;5090820;28;20052;-76
2021/11/20 04:31:30;;;;;;;9.40;2.42;;;;;;;9.52;100.00;101983.63;5090909;28;20042;-76
2021/11/20 04:33:56;;;;;;;10.15;2.55;;;;;;;9.44;100.00;101964.78;5090266;28;20396;-76
2021/11/20 04:36:23;;;;;;;4.80;1.45;;;;;;;9.42;100.00;101947.22;5073909;28;20031;-76
2021/11/20 04:38:50;;;;;;;5.97;2.78;;;;;;;9.27;100.00;101920.84;5074038;28;20146;-76
2021/11/20 04:41:17;;;;;;;6.13;2.53;;;;;;;9.20;100.00;101922.31;5090895;28;20117;-76
2021/11/20 04:43:45;;;;;;;12.80;4.50;;;;;;;9.24;100.00;101942.38;5090357;28;20513;-76
2021/11/20 04:46:13;;;;;;;7.25;3.40;;;;;;;9.17;100.00;101954.53;5090344;28;20065;-76
2021/11/20 04:48:39;;;;;;;11.55;5.13;;;;;;;9.16;100.00;101979.47;5090635;28;20028;-77
2021/11/20 04:51:06;;;;;;;8.85;3.85;;;;;;;9.18;100.00;102004.19;5090387;28;20028;-76
2021/11/20 04:53:35;;;;;;;21.40;5.53;;;;;;;9.26;100.00;102019.56;5072426;28;20480;-76
2021/11/20 04:56:05;;;;;;;13.02;4.53;;;;;;;9.34;100.00;102051.78;5073851;28;20374;-75
2021/11/20 04:58:31;;;;;;;17.50;4.88;;;;;;;9.30;100.00;102045.00;5090417;28;20036;-77
2021/11/20 05:00:59;;;;;;;13.40;5.32;;;;;;;9.41;100.00;102076.09;5090342;28;20035;-77
2021/11/20 05:03:31;;;;;;;19.08;5.93;;;;;;;9.40;100.00;102067.28;5089798;28;20035;-76
2021/11/20 05:05:57;;;;;;;14.23;6.15;;;;;;;9.43;100.00;102061.69;5073461;28;20108;-76
2021/11/20 05:08:25;;;;;;;16.77;5.03;;;;;;;9.35;100.00;102036.63;5073356;28;20044;-76
2021/11/20 05:10:57;;;;;;;14.93;4.60;;;;;;;9.52;100.00;102050.28;5074452;28;20552;-76
2021/11/20 05:13:26;;;;;;;15.63;4.15;;;;;;;9.56;100.00;102018.91;5089850;28;20032;-77
2021/11/20 05:15:55;;;;;;;12.85;3.80;;;;;;;9.56;100.00;101986.91;5073378;28;20138;-76
2021/11/20 05:18:21;;;;;;;22.92;5.07;;;;;;;9.62;100.00;101977.56;5089959;28;20020;-76
2021/11/20 05:20:59;;;;;;;20.85;3.95;;;;;;;9.66;100.00;101949.66;5074286;28;20055;-76
2021/11/20 05:23:30;;;;;;;15.10;3.00;;;;;;;9.64;100.00;101928.44;5089629;28;20111;-77
2021/11/20 05:25:56;;;;;;;20.27;3.40;;;;;;;9.60;100.00;101899.50;5090004;28;20453;-76
2021/11/20 05:28:22;;;;;;;17.33;2.77;;;;;;;9.61;100.00;101886.06;5072902;28;20024;-76
2021/11/20 05:30:50;;;;;;;15.73;2.85;;;;;;;9.62;100.00;101874.44;5089774;28;20329;-77
2021/11/20 05:33:26;;;;;;;20.30;4.03;;;;;;;9.69;100.00;101872.06;5071869;28;20036;-77
2021/11/20 05:35:51;;;;;;;17.38;3.25;;;;;;;9.66;100.00;101859.00;5089164;28;20492;-77
2021/11/20 05:38:18;;;;;;;11.90;3.85;;;;;;;9.71;100.00;101862.97;5089713;28;20016;-77
2021/11/20 05:40:44;;;;;;;14.43;3.30;;;;;;;9.67;100.00;101848.22;5072934;28;20047;-77
2021/11/20 05:43:14;;;;;;;14.50;3.50;;;;;;;9.70;100.00;101855.94;5072524;28;20039;-77
2021/11/20 05:45:45;;;;;;;11.95;3.72;;;;;;;9.70;100.00;101861.28;5088215;28;20366;-77
2021/11/20 05:48:11;;;;;;;18.85;4.80;;;;;;;9.74;100.00;101856.56;5090259;28;20110;-77
2021/11/20 05:50:37;;;;;;;23.05;4.25;;;;;;;9.65;100.00;101841.31;5090598;28;20044;-77
2021/11/20 05:53:12;;;;;;;19.35;6.13;;;;;;;9.70;100.00;101847.13;5088948;28;20044;-77
2021/11/20 05:55:40;;;;;;;22.92;4.45;;;;;;;9.70;100.00;101844.44;5089372;28;20529;-76
2021/11/20 05:58:06;;;;;;;18.80;5.05;;;;;;;9.68;100.00;101847.22;5072395;28;20354;-77
2021/11/20 06:00:35;;;;;;;15.65;3.75;;;;;;;9.76;100.00;101854.56;5089406;28;20046;-77
2021/11/20 06:03:03;;;;;;;23.98;4.75;;;;;;;9.77;100.00;101842.09;5088632;28;20465;-77
2021/11/20 06:05:49;;;;;;;27.58;6.00;;;;;;;9.73;100.00;101834.34;5075100;28;20036;-77
2021/11/20 06:08:16;;;;;;;20.08;4.53;;;;;;;9.77;100.00;101834.09;5089071;28;20024;-77
2021/11/20 06:10:43;;;;;;;18.73;4.57;;;;;;;9.79;100.00;101832.16;5072411;28;20262;-77
2021/11/20 06:13:14;;;;;;;24.88;4.30;;;;;;;9.79;100.00;101806.31;5072832;28;20158;-77
2021/11/20 06:15:47;;;;;;;31.45;5.47;;;;;;;9.82;100.00;101811.38;5089301;28;20032;-77
2021/11/20 06:18:13;;;;;;;15.07;4.40;;;;;;;9.80;100.00;101801.84;5088791;28;20055;-77
2021/11/20 06:20:43;;;;;;;24.05;5.20;;;;;;;9.82;100.00;101806.06;5072156;28;20046;-77
2021/11/20 06:23:09;;;;;;;18.33;5.60;;;;;;;9.82;100.00;101802.56;5088770;28;20127;-78
2021/11/20 06:25:34;;;;;;;24.08;5.10;;;;;;;9.81;100.00;101800.84;5089200;28;20032;-77
2021/11/20 06:28:00;;;;;;;28.13;6.10;;;;;;;9.78;100.00;101806.44;5072155;28;20032;-77
2021/11/20 06:30:27;;;;;;;35.53;6.57;;;;;;;9.86;100.00;101820.81;5089086;28;20064;-77
2021/11/20 06:32:54;;;;;;;25.15;6.70;;;;;;;9.84;100.00;101819.28;5087668;28;20141;-77
2021/11/20 06:35:48;;;;;;;19.13;5.78;;;;;;;9.83;100.00;101833.56;5073745;28;20518;-77
2021/11/20 06:38:29;;;;;;;29.45;7.80;;;;;;;9.89;100.00;101854.38;5072525;28;20036;-76
2021/11/20 06:40:59;;;;;;;25.95;6.25;;;;;;;9.94;100.00;101874.34;5087975;28;20346;-77
2021/11/20 06:43:28;;;;;;;23.80;8.35;;;;;;;9.89;100.00;101857.91;5088622;28;20039;-76
2021/11/20 06:45:57;;;;;;;29.38;8.13;;;;;;;9.94;100.00;101862.84;5088812;28;20028;-76
2021/11/20 06:48:23;;;;;;;25.25;8.77;;;;;;;9.89;100.00;101855.22;5086147;28;20032;-76
2021/11/20 06:51:07;;;;;;;44.05;11.65;;;;;;;9.91;100.00;101857.78;5073055;28;20036;-76
2021/11/20 06:53:36;;;;;;;24.92;10.25;;;;;;;9.91;100.00;101855.09;5087762;28;20449;-76
2021/11/20 06:56:27;;;;;;;34.53;9.37;;;;;;;9.87;100.00;101864.34;5089724;28;20372;-76
2021/11/20 07:02:20;;;;;;;36.33;12.68;;;;;;;9.97;100.00;101877.75;5088607;28;20089;-76
2021/11/20 07:04:46;;;;;;;38.38;12.15;;;;;;;9.90;100.00;101872.94;5087889;28;20036;-76
2021/11/20 07:07:13;;;;;;;43.50;14.43;;;;;;;9.94;100.00;101892.19;5088099;28;20495;-76
2021/11/20 07:09:40;;;;;;;35.30;13.15;;;;;;;9.89;100.00;101873.06;5089323;28;20393;-76
2021/11/20 07:12:06;;;;;;;40.35;12.93;;;;;;;9.92;100.00;101886.13;5071580;28;20114;-76
2021/11/20 07:14:33;;;;;;;38.42;13.45;;;;;;;9.92;100.00;101894.97;5088104;28;20124;-76
2021/11/20 07:16:58;;;;;;;30.73;11.20;;;;;;;9.94;100.00;101879.69;5074526;28;20117;-76
2021/11/20 07:19:29;;;;;;;36.30;13.05;;;;;;;9.95;100.00;101885.91;5092412;28;20032;-77
2021/11/20 07:22:34;;;;;;;37.80;11.35;;;;;;;9.93;100.00;101862.00;5091145;28;20050;-76
2021/11/20 07:25:09;;;;;;;39.30;11.98;;;;;;;9.99;100.00;101868.63;5074001;28;20036;-76
2021/11/20 07:27:35;;;;;;;;;;;;;;;10.01;100.00;101866.69;5065933;28;20130;-76
2021/11/20 07:30:00;;;;;;;;;;;;;;;9.93;100.00;101846.00;5075537;28;20424;-76
2021/11/20 07:32:38;;;;;;;28.40;11.18;;;;;;;9.93;100.00;101837.16;5076996;28;19947;-76
2021/11/20 07:35:04;;;;;;;44.92;14.38;;;;;;;9.92;100.00;101832.78;5074461;28;20055;-75
2021/11/20 07:37:30;;;;;;;29.52;11.13;;;;;;;9.89;100.00;101820.56;5074809;28;20350;-74
2021/11/20 07:39:55;;;;;;;37.70;12.65;;;;;;;9.96;100.00;101844.88;5091800;28;20035;-74
2021/11/20 07:42:22;;;;;;;35.83;13.25;;;;;;;9.92;100.00;101825.63;5091724;28;20058;-74
2021/11/20 07:45:07;;;;;;;25.45;11.93;;;;;;;9.93;100.00;101832.66;5091558;28;20054;-75
2021/11/20 07:47:44;;;;;;;34.53;12.13;;;;;;;9.97;100.00;101835.88;5076100;28;20530;-74
2021/11/20 07:50:10;;;;;;;40.30;12.85;;;;;;;9.93;100.00;101821.16;5074662;28;20110;-74
2021/11/20 07:52:36;;;;;;;;;;;;;;;9.96;100.00;101830.72;5091854;28;20039;-75
2021/11/20 07:55:02;;;;;;;33.97;11.75;;;;;;;9.91;100.00;101818.59;5091218;28;20371;-74
2021/11/20 07:57:31;;;;;;;31.40;11.02;;;;;;;9.99;100.00;101828.59;5091432;28;20062;-73
2021/11/20 08:00:05;;;;;;;28.88;11.88;;;;;;;9.98;100.00;101816.25;5075126;28;20085;-75
2021/11/20 08:02:59;;;;;;;28.90;11.35;;;;;;;9.89;100.00;101793.03;5091097;28;20036;-74
2021/11/20 08:05:45;;;;;;;44.17;13.93;;;;;;;9.90;100.00;101797.38;5077329;28;20036;-74
2021/11/20 08:08:26;;;;;;;32.05;11.23;;;;;;;9.85;100.00;101795.13;5076567;28;20462;-73
2021/11/20 08:11:05;;;;;;;25.85;11.40;;;;;;;9.94;100.00;101807.66;5076250;28;20061;-73
2021/11/20 08:13:35;;;;;;;32.28;11.68;;;;;;;9.91;100.00;101805.25;5091232;28;20039;-74
2021/11/20 08:16:18;;;;;;;26.75;11.55;;;;;;;9.93;100.00;101808.66;5091110;28;20123;-74
2021/11/20 08:19:17;;;;;;;38.53;11.80;;;;;;;9.87;100.00;101787.81;5101965;28;20075;-73
2021/11/20 08:21:52;;;;;;;33.30;11.68;;;;;;;9.96;100.00;101796.88;5091133;28;20043;-74
2021/11/20 08:24:19;;;;;;;35.20;11.65;;;;;;;9.95;100.00;101784.53;5074154;28;20035;-74
2021/11/20 08:26:46;;;;;;;28.83;10.85;;;;;;;10.01;100.00;101799.13;5073821;28;20039;-74
2021/11/20 08:29:19;;;;;;;34.17;14.70;;;;;;;10.08;100.00;101801.13;5072372;28;20482;-73
2021/11/20 08:31:48;;;;;;;32.33;13.20;;;;;;;9.99;100.00;101769.06;5090207;28;20432;-74
2021/11/20 08:34:30;;;;;;;31.10;12.70;;;;;;;10.02;100.00;101769.66;5073213;28;20028;-74
2021/11/20 08:37:21;;;;;;;39.63;13.70;;;;;;;9.94;100.00;101750.81;5089572;28;20094;-74
2021/11/20 08:40:00;;;;;;;34.08;13.35;;;;;;;9.96;100.00;101735.50;5089694;28;20032;-74
2021/11/20 08:42:26;;;;;;;40.75;13.48;;;;;;;10.04;100.00;101767.69;5072692;28;20081;-74
2021/11/20 08:44:53;;;;;;;39.20;15.07;;;;;;;10.05;100.00;101758.72;5072324;28;20032;-75
2021/11/20 08:47:24;;;;;;;32.55;13.05;;;;;;;10.04;100.00;101756.16;5073179;28;20036;-75
2021/11/20 08:49:50;;;;;;;27.13;12.68;;;;;;;10.05;100.00;101748.03;5072301;28;20533;-75
2021/11/20 08:52:17;;;;;;;33.17;12.80;;;;;;;10.03;100.00;101750.00;5072414;28;20414;-76
2021/11/20 08:54:44;;;;;;;42.22;13.93;;;;;;;10.04;100.00;101740.16;5088850;28;20365;-75
2021/11/20 08:57:10;;;;;;;36.08;12.30;;;;;;;10.05;100.00;101744.53;5088956;28;20032;-75
2021/11/20 08:59:38;;;;;;;33.10;14.10;;;;;;;9.95;100.00;101709.81;5072178;28;20032;-75
2021/11/20 09:02:24;;;;;;;32.92;11.43;;;;;;;10.02;100.00;101721.63;5090153;28;20051;-75
2021/11/20 09:05:00;;;;;;;26.42;11.45;;;;;;;10.05;100.00;101723.19;5072164;28;20063;-76
2021/11/20 09:08:01;;;;;;;33.95;13.32;;;;;;;10.10;100.00;101729.81;5072468;28;20043;-75
2021/11/20 09:10:35;;;;;;;33.95;14.20;;;;;;;10.10;100.00;101707.63;5088687;28;20134;-75
2021/11/20 09:13:04;;;;;;;35.83;12.18;;;;;;;10.07;100.00;101700.72;5089959;28;20157;-76
2021/11/20 09:15:37;;;;;;;37.30;12.00;;;;;;;10.08;100.00;101702.41;5073149;28;20361;-75
2021/11/20 09:18:19;;;;;;;29.17;13.23;;;;;;;10.05;100.00;101700.00;5089896;28;20028;-76
2021/11/20 09:20:47;;;;;;;33.25;12.63;;;;;;;10.12;100.00;101714.50;5089926;28;20039;-76
2021/11/20 09:23:32;;;;;;;25.90;12.13;;;;;;;10.09;100.00;101701.44;5090414;28;20032;-76
2021/11/20 09:26:18;;;;;;;;;;;;;;;10.06;100.00;101696.34;5089959;28;20457;-76
2021/11/20 09:28:45;;;;;;;27.42;11.25;;;;;;;10.12;100.00;101685.16;5089458;28;19981;-76
2021/11/20 09:31:11;;;;;;;29.80;12.23;;;;;;;10.09;100.00;101688.09;5089809;28;20055;-75
2021/11/20 09:33:37;;;;;;;30.88;11.38;;;;;;;10.10;100.00;101691.59;5088805;28;20040;-75
2021/11/20 09:36:05;;;;;;;34.95;12.75;;;;;;;10.13;100.00;101689.50;5072814;28;20028;-76
2021/11/20 09:38:43;;;;;;;29.17;11.35;;;;;;;10.19;100.00;101689.94;5089152;28;20024;-77
2021/11/20 09:41:15;;;;;;;33.67;12.00;;;;;;;10.19;100.00;101677.44;5072749;28;20039;-76
2021/11/20 09:43:51;;;;;;;36.63;12.77;;;;;;;10.22;100.00;101679.00;5088505;28;20346;-75
2021/11/20 09:46:19;;;;;;;;;;;;;;;10.23;100.00;101670.88;5072924;28;20063;-76
2021/11/20 09:49:19;;;;;;;24.35;9.85;;;;;;;10.24;100.00;101655.69;5072833;28;19962;-76
2021/11/20 09:51:52;;;;;;;25.00;9.43;;;;;;;10.26;100.00;101637.72;5088644;28;20369;-76
2021/11/20 09:54:20;;;;;;;28.95;9.63;;;;;;;10.24;100.00;101642.34;5072151;28;20040;-76
2021/11/20 09:57:01;;;;;;;23.17;9.98;;;;;;;10.22;100.00;101626.47;5089011;28;20043;-76
2021/11/20 09:59:41;;;;;;;21.40;8.95;;;;;;;10.37;100.00;101640.25;5087235;28;20036;-76
2021/11/20 10:02:10;;;;;;;18.23;7.72;;;;;;;10.35;100.00;101611.06;5089647;28;20042;-76
2021/11/20 10:05:02;;;;;;;22.90;7.32;;;;;;;10.46;100.00;101618.06;5089112;28;20036;-76
2021/11/20 10:07:41;;;;;;;23.67;6.45;;;;;;;10.39;100.00;101587.56;5088057;28;20322;-76
2021/11/20 10:10:07;;;;;;;26.38;7.82;;;;;;;10.37;100.00;101586.88;5088224;28;20392;-76
2021/11/20 10:12:41;;;;;;;17.90;6.80;;;;;;;10.36;100.00;101579.88;5088204;28;20036;-76
2021/11/20 10:15:15;;;;;;;16.40;6.10;;;;;;;10.39;100.00;101573.41;5087897;28;20040;-76
2021/11/20 10:17:48;;;;;;;19.08;6.20;;;;;;;10.46;100.00;101570.00;5087790;28;20471;-75
2021/11/20 10:21:01;;;;;;;17.73;6.55;;;;;;;10.46;100.00;101559.34;5087489;28;20044;-76
2021/11/20 10:23:45;;;;;;;18.05;6.18;;;;;;;10.51;100.00;101561.56;5063948;28;20387;-76
2021/11/20 10:26:25;;;;;;;20.85;5.20;;;;;;;10.45;100.00;101541.66;5089196;28;20040;-76
2021/11/20 10:29:21;;;;;;;22.60;6.38;;;;;;;10.57;100.00;101553.00;5071346;28;20149;-76
2021/11/20 10:31:51;;;;;;;14.35;5.72;;;;;;;10.54;100.00;101543.47;5087154;28;20031;-76
2021/11/20 10:34:42;;;;;;;14.13;4.43;;;;;;;10.56;100.00;101533.47;5086530;28;20028;-76
2021/11/20 10:37:17;;;;;;;14.23;4.25;;;;;;;10.57;100.00;101523.63;5070612;28;20449;-76
2021/11/20 10:39:47;;;;;;;23.30;6.15;;;;;;;10.62;100.00;101523.22;5070433;28;20085;-75
2021/11/20 10:42:34;;;;;;;13.57;4.47;;;;;;;10.59;100.00;101499.47;5087561;28;20461;-75
2021/11/20 10:45:17;;;;;;;13.07;4.50;;;;;;;10.61;100.00;101497.50;5088290;28;20043;-75
2021/11/20 10:47:58;;;;;;;11.05;5.10;;;;;;;10.57;100.00;101495.09;5087058;28;20036;-75
2021/11/20 10:50:33;;;;;;;12.70;4.18;;;;;;;10.65;100.00;101504.22;5087920;28;20043;-75
2021/11/20 10:53:03;;;;;;;12.00;4.53;;;;;;;10.59;100.00;101486.13;5091246;28;20059;-75
2021/11/20 10:55:47;;;;;;;11.30;3.80;;;;;;;10.65;100.00;101488.19;5091313;28;20114;-75
2021/11/20 10:58:16;;;;;;;17.77;6.05;;;;;;;10.60;100.00;101479.78;5091394;28;20028;-75
2021/11/20 11:01:12;;;;;;;13.25;5.60;;;;;;;10.66;100.00;101479.22;5074086;28;20067;-75
2021/11/20 11:04:00;;;;;;;13.45;4.00;;;;;;;10.63;100.00;101474.13;5091542;28;20043;-75
2021/11/20 11:06:51;;;;;;;14.07;3.75;;;;;;;10.49;100.00;101435.44;5073987;28;20036;-75
2021/11/20 11:09:17;;;;;;;11.57;3.75;;;;;;;10.55;100.00;101442.84;5090958;28;20565;-75
2021/11/20 11:12:01;;;;;;;17.27;5.65;;;;;;;10.57;100.00;101455.06;5091051;28;20042;-75
2021/11/20 11:14:55;;;;;;;13.85;5.00;;;;;;;10.50;100.00;101432.59;5090677;28;20040;-76
2021/11/20 11:17:55;;;;;;;11.55;3.90;;;;;;;10.57;100.00;101435.53;5092061;28;20035;-76
2021/11/20 11:20:39;;;;;;;11.68;4.45;;;;;;;10.66;100.00;101447.16;5074144;28;20048;-75
2021/11/20 11:23:14;;;;;;;15.57;3.92;;;;;;;10.67;100.00;101427.47;5091493;28;20467;-76
2021/11/20 11:25:46;;;;;;;10.73;3.72;;;;;;;10.64;100.00;101412.59;5074170;28;20035;-75
2021/11/20 11:28:37;;;;;;;12.35;3.80;;;;;;;10.66;100.00;101409.78;5091676;28;20532;-76
2021/11/20 11:31:10;;;;;;;11.30;3.05;;;;;;;10.61;100.00;101399.53;5091763;28;20036;-76
2021/11/20 11:33:39;;;;;;;13.35;4.18;;;;;;;10.61;100.00;101382.69;5089752;28;20074;-76
2021/11/20 11:36:27;;;;;;;10.98;3.65;;;;;;;10.62;100.00;101373.66;5090810;28;20115;-76
2021/11/20 11:39:14;;;;;;;14.48;4.10;;;;;;;10.66;100.00;101375.06;5073888;28;20040;-76
2021/11/20 11:42:11;;;;;;;13.82;4.22;;;;;;;10.57;100.00;101352.75;5073674;28;20036;-75
2021/11/20 11:44:36;;;;;;;11.85;4.13;;;;;;;10.44;100.00;101339.75;5091039;28;20149;-75
2021/11/20 11:47:24;;;;;;;8.30;4.93;;;;;;;10.43;100.00;101345.22;5090554;28;20123;-75